createdAt,value
2023-07-18T00:02:18.723Z,40.90
2023-07-18T00:04:51.214Z,42.10
2023-07-18T00:07:24.482Z,42.90
2023-07-18T00:09:58.148Z,42.50
2023-07-18T00:12:31.999Z,43.10
2023-07-18T00:15:08.677Z,43.30
2023-07-18T00:17:41.791Z,44.00
2023-07-18T00:20:19.859Z,44.50
2023-07-18T00:22:52.209Z,44.90
2023-07-18T00:25:24.270Z,44.90
2023-07-18T00:27:58.610Z,44.70
2023-07-18T00:30:33.528Z,44.40
2023-07-18T00:33:06.322Z,43.60
2023-07-18T00:35:39.746Z,43.00
2023-07-18T00:38:14.327Z,42.40
2023-07-18T00:40:46.740Z,42.10
2023-07-18T00:43:19.221Z,43.20
2023-07-18T00:45:55.516Z,44.20
2023-07-18T00:48:28.124Z,44.90
2023-07-18T00:51:00.624Z,45.30
2023-07-18T00:53:32.962Z,45.10
2023-07-18T00:56:05.639Z,46.00
2023-07-18T00:58:38.370Z,46.50
2023-07-18T01:01:12.512Z,46.40
2023-07-18T01:03:45.369Z,46.40
2023-07-18T01:06:18.898Z,45.90
2023-07-18T01:08:52.744Z,46.30
2023-07-18T01:11:25.298Z,45.50
2023-07-18T01:14:00.062Z,44.10
2023-07-18T01:16:34.702Z,44.10
2023-07-18T01:19:09.988Z,44.10
2023-07-18T01:21:46.846Z,43.50
2023-07-18T01:24:21.193Z,43.50
2023-07-18T01:26:55.254Z,43.10
2023-07-18T01:29:29.349Z,42.80
2023-07-18T01:32:02.453Z,42.50
2023-07-18T01:34:35.159Z,42.90
2023-07-18T01:37:09.689Z,43.00
2023-07-18T01:39:42.188Z,43.70
2023-07-18T01:42:15.655Z,43.60
2023-07-18T01:44:47.944Z,42.90
2023-07-18T01:47:20.985Z,43.00
2023-07-18T01:49:54.315Z,43.50
2023-07-18T01:52:29.134Z,43.80
2023-07-18T01:55:02.720Z,44.60
2023-07-18T01:57:35.560Z,44.50
2023-07-18T02:00:13.107Z,44.90
2023-07-18T02:02:50.570Z,43.10
2023-07-18T02:05:23.752Z,43.40
2023-07-18T02:07:58.336Z,43.60
2023-07-18T02:10:30.998Z,44.10
2023-07-18T02:13:04.029Z,44.10
2023-07-18T02:15:36.494Z,43.70
2023-07-18T02:18:10.425Z,43.70
2023-07-18T02:20:42.869Z,44.00
2023-07-18T02:23:17.125Z,43.40
2023-07-18T02:25:50.855Z,42.40
2023-07-18T02:28:22.987Z,42.70
2023-07-18T02:30:56.535Z,42.90
2023-07-18T02:33:32.290Z,42.40
2023-07-18T02:36:05.989Z,42.70
2023-07-18T02:38:44.397Z,42.30
2023-07-18T02:41:16.863Z,42.30
2023-07-18T02:43:49.247Z,42.80
2023-07-18T02:46:22.464Z,42.60
2023-07-18T02:48:56.642Z,42.30
2023-07-18T02:51:28.877Z,42.10
2023-07-18T02:54:02.588Z,41.30
2023-07-18T02:56:35.950Z,41.50
2023-07-18T02:59:08.998Z,41.40
2023-07-18T03:01:42.462Z,41.10
2023-07-18T03:04:14.869Z,41.20
2023-07-18T03:06:47.674Z,40.90
2023-07-18T03:09:22.329Z,40.30
2023-07-18T03:11:54.867Z,39.30
2023-07-18T03:14:29.137Z,38.70
2023-07-18T03:17:01.323Z,38.10
2023-07-18T03:19:34.321Z,39.00
2023-07-18T03:22:16.110Z,39.40
2023-07-18T03:24:51.331Z,39.90
2023-07-18T03:27:23.684Z,40.10
2023-07-18T03:29:55.863Z,40.20
2023-07-18T03:32:28.350Z,40.20
2023-07-18T03:35:00.313Z,40.30
2023-07-18T03:37:33.309Z,39.50
2023-07-18T03:40:12.238Z,39.70
2023-07-18T03:42:44.088Z,39.00
2023-07-18T03:45:16.639Z,39.20
2023-07-18T03:47:49.219Z,39.80
2023-07-18T03:50:21.291Z,40.00
2023-07-18T03:52:53.165Z,39.90
2023-07-18T03:55:28.225Z,38.70
2023-07-18T03:58:00.829Z,39.20
2023-07-18T04:00:33.315Z,39.80
2023-07-18T04:03:05.172Z,39.90
2023-07-18T04:05:37.522Z,39.70
2023-07-18T04:08:09.902Z,39.30
2023-07-18T04:10:46.883Z,39.40
2023-07-18T04:13:19.638Z,39.10
2023-07-18T04:15:52.053Z,38.50
2023-07-18T04:18:24.812Z,38.60
2023-07-18T04:21:03.687Z,38.60
2023-07-18T04:23:36.353Z,38.20
2023-07-18T04:26:11.474Z,38.00
2023-07-18T04:28:44.036Z,36.90
2023-07-18T04:31:23.083Z,36.80
2023-07-18T04:33:55.584Z,36.80
2023-07-18T04:36:27.508Z,37.10
2023-07-18T04:39:01.357Z,36.80
2023-07-18T04:41:45.076Z,36.50
2023-07-18T04:44:17.576Z,36.40
2023-07-18T04:46:50.026Z,36.80
2023-07-18T04:49:22.589Z,36.90
2023-07-18T04:51:54.631Z,37.00
2023-07-18T04:54:28.211Z,37.30
2023-07-18T04:57:04.742Z,37.20
2023-07-18T04:59:40.100Z,36.80
2023-07-18T05:02:12.485Z,37.00
2023-07-18T05:04:47.516Z,36.80
2023-07-18T05:07:19.635Z,37.00
2023-07-18T05:09:52.508Z,37.50
2023-07-18T05:12:31.353Z,37.70
2023-07-18T05:15:03.661Z,38.00
2023-07-18T05:17:39.275Z,37.60
2023-07-18T05:20:14.629Z,37.20
2023-07-18T05:22:48.634Z,37.20
2023-07-18T05:25:23.289Z,37.60
2023-07-18T05:27:59.886Z,38.00
2023-07-18T05:30:33.192Z,38.10
2023-07-18T05:33:07.480Z,38.00
2023-07-18T05:35:40.293Z,38.00
2023-07-18T05:38:15.579Z,37.80
2023-07-18T05:40:49.938Z,37.60
2023-07-18T05:43:24.719Z,37.00
2023-07-18T05:46:00.920Z,37.20
2023-07-18T05:48:34.692Z,37.30
2023-07-18T05:51:13.886Z,37.20
2023-07-18T05:53:46.711Z,37.10
2023-07-18T05:56:20.140Z,37.10
2023-07-18T05:58:54.082Z,36.70
2023-07-18T06:01:26.894Z,36.70
2023-07-18T06:04:01.657Z,36.60
2023-07-18T06:06:34.179Z,36.50
2023-07-18T06:09:07.987Z,36.50
2023-07-18T06:11:40.269Z,36.80
2023-07-18T06:14:14.854Z,36.70
2023-07-18T06:16:47.896Z,36.80
2023-07-18T06:19:20.088Z,36.70
2023-07-18T06:21:52.534Z,36.80
2023-07-18T06:24:24.836Z,36.80
2023-07-18T06:26:58.027Z,36.90
2023-07-18T06:29:32.512Z,36.90
2023-07-18T06:32:08.664Z,36.90
2023-07-18T06:34:44.707Z,36.90
2023-07-18T06:37:16.727Z,36.50
2023-07-18T06:39:49.212Z,36.40
2023-07-18T06:42:22.438Z,36.40
2023-07-18T06:44:57.261Z,36.50
2023-07-18T06:47:29.742Z,36.70
2023-07-18T06:50:02.743Z,36.80
2023-07-18T06:52:36.768Z,36.20
2023-07-18T06:55:12.810Z,36.30
2023-07-18T06:57:45.167Z,36.50
2023-07-18T07:00:22.306Z,36.60
2023-07-18T07:02:57.443Z,36.80
2023-07-18T07:05:29.968Z,37.00
2023-07-18T07:08:02.757Z,37.00
2023-07-18T07:10:35.747Z,37.10
2023-07-18T07:13:09.007Z,37.30
2023-07-18T07:15:44.660Z,37.20
2023-07-18T07:18:18.130Z,36.90
2023-07-18T07:20:50.208Z,36.80
2023-07-18T07:23:22.536Z,37.00
2023-07-18T07:25:55.694Z,37.30
2023-07-18T07:28:27.894Z,37.40
2023-07-18T07:31:07.000Z,37.30
2023-07-18T07:33:42.856Z,37.20
2023-07-18T07:36:15.237Z,37.20
2023-07-18T07:38:47.423Z,37.10
2023-07-18T07:41:19.394Z,37.20
2023-07-18T07:43:51.306Z,37.10
2023-07-18T07:46:26.043Z,37.20
2023-07-18T07:48:59.152Z,37.30
2023-07-18T07:51:32.340Z,37.20
2023-07-18T07:54:08.321Z,37.40
2023-07-18T07:56:40.702Z,37.40
2023-07-18T07:59:17.659Z,37.30
2023-07-18T08:01:53.569Z,37.10
2023-07-18T08:04:26.826Z,37.10
2023-07-18T08:06:59.784Z,37.20
2023-07-18T08:09:31.834Z,37.10
2023-07-18T08:12:03.847Z,37.10
2023-07-18T08:14:38.464Z,37.10
2023-07-18T08:17:16.385Z,37.10
2023-07-18T08:19:49.621Z,37.00
2023-07-18T08:22:22.168Z,37.20
2023-07-18T08:24:54.104Z,37.30
2023-07-18T08:27:27.495Z,37.10
2023-07-18T08:29:59.514Z,36.60
2023-07-18T08:32:34.089Z,36.20
2023-07-18T08:35:08.775Z,36.20
2023-07-18T08:37:41.960Z,36.10
2023-07-18T08:40:16.240Z,36.00
2023-07-18T08:42:48.571Z,35.70
2023-07-18T08:45:21.326Z,35.60
2023-07-18T08:47:58.982Z,35.40
2023-07-18T08:50:36.394Z,35.50
2023-07-18T08:53:09.576Z,35.60
2023-07-18T08:55:42.131Z,35.60
2023-07-18T08:58:16.550Z,35.50
2023-07-18T09:00:51.087Z,35.40
2023-07-18T09:03:26.228Z,35.40
2023-07-18T09:05:58.137Z,35.00
2023-07-18T09:08:30.064Z,34.90
2023-07-18T09:11:06.578Z,34.60
2023-07-18T09:13:43.736Z,34.10
2023-07-18T09:16:19.769Z,33.70
2023-07-18T09:18:58.049Z,33.70
2023-07-18T09:21:31.242Z,33.70
2023-07-18T09:24:03.555Z,33.60
2023-07-18T09:26:35.938Z,33.60
2023-07-18T09:29:13.208Z,33.60
2023-07-18T09:31:45.565Z,33.30
2023-07-18T09:34:21.328Z,33.30
2023-07-18T09:37:00.416Z,32.90
2023-07-18T09:39:32.838Z,32.80
2023-07-18T09:42:05.597Z,32.50
2023-07-18T09:44:44.295Z,32.40
2023-07-18T09:47:18.986Z,32.40
2023-07-18T09:49:52.918Z,32.30
2023-07-18T09:52:29.601Z,32.10
2023-07-18T09:55:03.368Z,32.10
2023-07-18T09:57:36.543Z,32.00
2023-07-18T10:00:11.482Z,32.00
2023-07-18T10:02:44.713Z,31.90
2023-07-18T10:05:19.129Z,31.80
2023-07-18T10:07:52.969Z,31.80
2023-07-18T10:10:25.191Z,31.80
2023-07-18T10:13:03.420Z,31.80
2023-07-18T10:15:55.462Z,31.90
2023-07-18T10:18:28.045Z,31.60
2023-07-18T10:21:07.460Z,31.70
2023-07-18T10:23:46.573Z,32.00
2023-07-18T10:26:20.236Z,32.10
2023-07-18T10:28:52.481Z,31.90
2023-07-18T10:31:35.916Z,32.00
2023-07-18T10:34:17.964Z,32.00
2023-07-18T10:37:00.624Z,31.90
2023-07-18T10:39:46.321Z,31.70
2023-07-18T10:42:22.384Z,31.80
2023-07-18T10:45:02.400Z,31.80
2023-07-18T10:47:34.718Z,31.80
2023-07-18T10:50:07.537Z,31.60
2023-07-18T10:52:42.750Z,31.50
2023-07-18T10:55:17.150Z,31.60
2023-07-18T10:57:50.910Z,31.50
2023-07-18T11:00:26.313Z,31.50
2023-07-18T11:03:00.019Z,31.40
2023-07-18T11:05:32.079Z,31.40
2023-07-18T11:08:06.929Z,31.30
2023-07-18T11:10:39.898Z,31.30
2023-07-18T11:13:13.292Z,31.30
2023-07-18T11:15:46.163Z,31.40
2023-07-18T11:18:19.723Z,31.30
2023-07-18T11:20:52.716Z,31.30
2023-07-18T11:23:28.416Z,31.40
2023-07-18T11:26:01.015Z,31.30
2023-07-18T11:28:37.669Z,31.20
2023-07-18T11:31:09.515Z,31.10
2023-07-18T11:33:42.916Z,31.30
2023-07-18T11:36:16.833Z,31.30
2023-07-18T11:38:53.752Z,31.30
2023-07-18T11:41:36.574Z,31.20
2023-07-18T11:44:09.597Z,31.10
2023-07-18T11:46:42.474Z,31.10
2023-07-18T11:49:15.523Z,31.10
2023-07-18T11:51:47.653Z,31.10
2023-07-18T11:54:21.602Z,31.10
2023-07-18T11:56:53.968Z,31.20
2023-07-18T11:59:26.447Z,31.10
2023-07-18T12:01:58.955Z,31.10
2023-07-18T12:04:34.797Z,31.20
2023-07-18T12:07:08.845Z,31.20
2023-07-18T12:09:44.410Z,31.20
2023-07-18T12:12:16.536Z,31.20
2023-07-18T12:14:50.273Z,31.10
2023-07-18T12:17:22.732Z,31.00
2023-07-18T12:19:54.785Z,31.00
2023-07-18T12:22:27.148Z,30.90
2023-07-18T12:25:03.940Z,31.00
2023-07-18T12:27:38.428Z,30.90
2023-07-18T12:30:11.458Z,30.90
2023-07-18T12:32:43.648Z,31.00
2023-07-18T12:35:17.192Z,30.80
2023-07-18T12:37:49.420Z,30.80
2023-07-18T12:40:23.243Z,30.90
2023-07-18T12:42:55.430Z,30.90
2023-07-18T12:45:29.469Z,31.10
2023-07-18T12:48:01.402Z,30.90
2023-07-18T12:50:33.618Z,30.90
2023-07-18T12:53:05.733Z,31.10
2023-07-18T12:55:40.680Z,31.10
2023-07-18T12:58:13.227Z,31.20
2023-07-18T13:00:46.128Z,31.20
2023-07-18T13:03:24.228Z,30.90
2023-07-18T13:05:59.464Z,30.70
2023-07-18T13:08:31.686Z,30.70
2023-07-18T13:11:06.457Z,30.70
2023-07-18T13:13:38.557Z,30.90
2023-07-18T13:16:10.624Z,30.90
2023-07-18T13:18:42.883Z,30.90
2023-07-18T13:21:15.318Z,31.00
2023-07-18T13:23:48.853Z,31.00
2023-07-18T13:26:24.251Z,31.00
2023-07-18T13:28:56.314Z,30.90
2023-07-18T13:31:30.179Z,30.80
2023-07-18T13:34:02.589Z,30.70
2023-07-18T13:36:35.422Z,30.70
2023-07-18T13:39:07.725Z,30.70
2023-07-18T13:41:41.908Z,30.80
2023-07-18T13:44:14.035Z,30.80
2023-07-18T13:46:50.092Z,30.80
2023-07-18T13:52:12.615Z,30.70
2023-07-18T13:54:45.530Z,30.80
2023-07-18T13:57:20.476Z,30.80
2023-07-18T13:59:52.416Z,30.80
2023-07-18T14:02:24.591Z,30.50
2023-07-18T14:04:59.458Z,30.50
2023-07-18T14:07:34.398Z,30.10
2023-07-18T14:10:06.592Z,30.10
2023-07-18T14:12:42.204Z,30.20
2023-07-18T14:15:16.666Z,29.90
2023-07-18T14:17:49.691Z,30.10
2023-07-18T14:20:24.656Z,30.30
2023-07-18T14:22:57.139Z,30.50
2023-07-18T14:25:29.206Z,30.70
2023-07-18T14:28:04.673Z,30.80
2023-07-18T14:30:36.777Z,30.80
2023-07-18T14:33:08.783Z,30.80
2023-07-18T14:35:42.631Z,30.80
2023-07-18T14:38:17.119Z,30.70
2023-07-18T14:40:50.917Z,30.90
2023-07-18T14:43:33.187Z,31.00
2023-07-18T14:46:05.842Z,31.10
2023-07-18T14:48:38.389Z,31.00
2023-07-18T14:51:12.238Z,31.00
2023-07-18T14:53:44.956Z,30.90
2023-07-18T14:56:19.898Z,31.00
2023-07-18T14:58:54.201Z,31.10
2023-07-18T15:01:26.013Z,31.10
2023-07-18T15:04:01.585Z,31.00
2023-07-18T15:06:35.125Z,31.00
2023-07-18T15:09:10.385Z,31.00
2023-07-18T15:11:43.959Z,31.00
2023-07-18T15:14:17.883Z,31.00
2023-07-18T15:16:50.152Z,31.10
2023-07-18T15:19:24.799Z,31.10
2023-07-18T15:21:58.187Z,31.10
2023-07-18T15:24:30.403Z,31.20
2023-07-18T15:27:02.719Z,31.20
2023-07-18T15:29:36.373Z,31.20
2023-07-18T15:32:08.721Z,31.10
2023-07-18T15:34:42.812Z,31.20
2023-07-18T15:37:14.808Z,31.20
2023-07-18T15:39:50.099Z,31.30
2023-07-18T15:42:25.064Z,31.40
2023-07-18T15:44:59.512Z,31.40
2023-07-18T15:47:31.526Z,31.40
2023-07-18T15:50:03.705Z,31.40
2023-07-18T15:52:35.810Z,31.30
2023-07-18T15:55:08.660Z,31.40
2023-07-18T15:57:51.763Z,31.40
2023-07-18T16:00:26.890Z,31.30
2023-07-18T16:03:09.674Z,31.40
2023-07-18T16:05:43.371Z,31.50
2023-07-18T16:08:18.204Z,31.50
2023-07-18T16:10:51.736Z,31.50
2023-07-18T16:13:23.860Z,31.50
2023-07-18T16:15:59.637Z,31.50
2023-07-18T16:18:31.721Z,31.50
2023-07-18T16:21:03.778Z,31.40
2023-07-18T16:23:38.021Z,31.30
2023-07-18T16:26:09.964Z,31.30
2023-07-18T16:28:42.175Z,31.40
2023-07-18T16:31:16.057Z,31.40
2023-07-18T16:33:48.905Z,31.40
2023-07-18T16:36:21.204Z,31.40
2023-07-18T16:38:54.681Z,31.40
2023-07-18T16:41:29.048Z,31.40
2023-07-18T16:44:01.847Z,31.20
2023-07-18T16:46:37.163Z,30.80
2023-07-18T16:49:09.922Z,30.70
2023-07-18T16:51:42.332Z,30.40
2023-07-18T16:54:14.680Z,30.10
2023-07-18T16:56:47.932Z,30.20
2023-07-18T16:59:21.284Z,30.00
2023-07-18T17:01:55.582Z,29.40
2023-07-18T17:04:32.777Z,29.10
2023-07-18T17:07:08.790Z,28.80
2023-07-18T17:09:43.998Z,28.90
2023-07-18T17:12:20.364Z,28.90
2023-07-18T17:14:52.282Z,28.80
2023-07-18T17:17:29.272Z,28.80
2023-07-18T17:22:36.797Z,28.70
2023-07-18T17:25:09.946Z,28.50
2023-07-18T17:27:42.371Z,28.20
2023-07-18T17:30:17.760Z,28.30
2023-07-18T17:32:53.043Z,28.40
2023-07-18T17:35:25.225Z,28.40
2023-07-18T17:37:57.597Z,28.30
2023-07-18T17:40:29.825Z,28.10
2023-07-18T17:43:01.694Z,28.00
2023-07-18T17:45:33.830Z,28.10
2023-07-18T17:48:08.365Z,28.20
2023-07-18T17:50:42.311Z,28.40
2023-07-18T17:53:16.890Z,28.70
2023-07-18T17:55:49.263Z,28.90
2023-07-18T17:58:21.669Z,28.80
2023-07-18T18:00:55.422Z,28.70
2023-07-18T18:03:34.664Z,28.80
2023-07-18T18:06:11.990Z,29.00
2023-07-18T18:08:47.544Z,29.00
2023-07-18T18:11:21.220Z,29.10
2023-07-18T18:13:57.196Z,29.00
2023-07-18T18:16:29.449Z,28.90
2023-07-18T18:19:03.166Z,28.90
2023-07-18T18:21:35.264Z,28.80
2023-07-18T18:24:09.441Z,28.90
2023-07-18T18:26:43.302Z,29.20
2023-07-18T18:29:17.685Z,29.50
2023-07-18T18:31:51.316Z,29.40
2023-07-18T18:34:25.746Z,29.50
2023-07-18T18:36:58.016Z,29.60
2023-07-18T18:39:30.851Z,29.70
2023-07-18T18:42:02.973Z,29.70
2023-07-18T18:44:35.030Z,29.70
2023-07-18T18:47:08.675Z,29.60
2023-07-18T18:49:43.226Z,29.40
2023-07-18T18:52:15.305Z,29.20
2023-07-18T18:54:47.668Z,29.10
2023-07-18T18:57:19.836Z,29.20
2023-07-18T18:59:51.989Z,29.10
2023-07-18T19:02:24.477Z,29.00
2023-07-18T19:04:58.812Z,28.90
2023-07-18T19:07:30.906Z,28.90
2023-07-18T19:10:03.490Z,29.10
2023-07-18T19:12:35.612Z,29.20
2023-07-18T19:15:07.981Z,29.20
2023-07-18T19:17:40.690Z,29.00
2023-07-18T19:20:15.248Z,29.10
2023-07-18T19:22:47.436Z,29.10
2023-07-18T19:25:20.274Z,29.00
2023-07-18T19:27:53.089Z,29.00
2023-07-18T19:30:25.783Z,29.10
2023-07-18T19:32:58.200Z,29.20
2023-07-18T19:35:32.680Z,29.30
2023-07-18T19:38:06.643Z,29.30
2023-07-18T19:40:39.053Z,29.40
2023-07-18T19:43:11.633Z,29.30
2023-07-18T19:45:44.181Z,29.30
2023-07-18T19:48:16.671Z,29.40
2023-07-18T19:50:50.912Z,29.40
2023-07-18T19:53:22.768Z,29.40
2023-07-18T19:55:54.930Z,29.30
2023-07-18T19:58:27.296Z,29.40
2023-07-18T20:01:00.215Z,29.50
2023-07-18T20:03:44.242Z,29.40
2023-07-18T20:06:27.538Z,29.40
2023-07-18T20:08:59.700Z,29.40
2023-07-18T20:11:32.187Z,29.40
2023-07-18T20:14:04.312Z,28.90
2023-07-18T20:16:36.774Z,28.70
2023-07-18T20:19:09.230Z,28.50
2023-07-18T20:21:44.450Z,28.70
2023-07-18T20:24:16.845Z,28.80
2023-07-18T20:26:49.660Z,29.00
2023-07-18T20:29:21.856Z,29.10
2023-07-18T20:31:53.817Z,29.10
2023-07-18T20:34:26.008Z,29.10
2023-07-18T20:36:59.933Z,29.20
2023-07-18T20:39:33.869Z,29.20
2023-07-18T20:42:06.403Z,29.20
2023-07-18T20:44:39.636Z,29.20
2023-07-18T20:47:11.805Z,29.20
2023-07-18T20:49:44.232Z,29.20
2023-07-18T20:52:18.924Z,29.20
2023-07-18T20:54:50.947Z,29.20
2023-07-18T20:57:23.523Z,29.20
2023-07-18T20:59:55.350Z,29.20
2023-07-18T21:02:27.479Z,29.20
2023-07-18T21:05:00.822Z,29.20
2023-07-18T21:07:35.077Z,29.20
2023-07-18T21:10:07.351Z,29.30
2023-07-18T21:12:39.408Z,29.20
2023-07-18T21:15:12.062Z,29.10
2023-07-18T21:17:44.267Z,29.20
2023-07-18T21:20:18.599Z,29.20
2023-07-18T21:22:53.300Z,29.20
2023-07-18T21:25:25.243Z,29.10
2023-07-18T21:27:57.218Z,29.10
2023-07-18T21:30:29.517Z,29.00
2023-07-18T21:33:01.322Z,29.00
2023-07-18T21:35:33.450Z,29.00
2023-07-18T21:38:07.672Z,28.90
2023-07-18T21:40:39.544Z,28.90
2023-07-18T21:43:13.518Z,28.60
2023-07-18T21:45:46.033Z,28.50
2023-07-18T21:48:18.428Z,28.60
2023-07-18T21:50:50.532Z,28.70
2023-07-18T21:53:24.985Z,28.80
2023-07-18T21:55:57.866Z,28.60
2023-07-18T21:58:29.911Z,28.60
2023-07-18T22:01:02.274Z,28.60
2023-07-18T22:03:34.747Z,28.20
2023-07-18T22:06:08.231Z,28.20
2023-07-18T22:08:42.475Z,28.40
2023-07-18T22:11:15.111Z,28.50
2023-07-18T22:13:47.732Z,28.50
2023-07-18T22:16:20.171Z,28.50
2023-07-18T22:18:52.339Z,28.60
2023-07-18T22:21:24.226Z,28.50
2023-07-18T22:24:01.075Z,28.60
2023-07-18T22:26:33.409Z,28.60
2023-07-18T22:29:06.139Z,28.60
2023-07-18T22:31:38.364Z,28.60
2023-07-18T22:34:10.761Z,28.70
2023-07-18T22:36:42.941Z,28.70
2023-07-18T22:39:33.338Z,28.70
2023-07-18T22:42:21.090Z,28.70
2023-07-18T22:44:53.133Z,28.70
2023-07-18T22:47:25.517Z,28.80
2023-07-18T22:49:58.025Z,28.70
2023-07-18T22:52:30.358Z,28.90
2023-07-18T22:55:05.076Z,29.20
2023-07-18T22:57:36.987Z,29.30
2023-07-18T23:00:11.348Z,29.20
2023-07-18T23:02:43.624Z,29.20
2023-07-18T23:05:16.158Z,29.40
2023-07-18T23:07:48.365Z,30.20
2023-07-18T23:10:22.119Z,30.80
2023-07-18T23:12:53.897Z,31.00
2023-07-18T23:15:26.371Z,31.10
2023-07-18T23:17:58.654Z,31.40
2023-07-18T23:20:30.620Z,31.70
2023-07-18T23:23:02.878Z,31.60
2023-07-18T23:25:36.938Z,31.40
2023-07-18T23:28:09.192Z,31.50
2023-07-18T23:30:45.895Z,31.80
2023-07-18T23:33:17.702Z,31.80
2023-07-18T23:35:50.395Z,31.90
2023-07-18T23:38:22.614Z,32.30
2023-07-18T23:40:57.312Z,33.00
2023-07-18T23:43:31.207Z,33.50
2023-07-18T23:46:03.635Z,33.90
2023-07-18T23:48:36.066Z,34.00
2023-07-18T23:51:09.254Z,35.10
2023-07-18T23:53:43.000Z,36.20
2023-07-18T23:56:16.901Z,37.00
2023-07-18T23:58:49.347Z,38.20
